KITH

Ithaca Tompkins Regional Airport

Ithaca, New York, USA
METAR KITH 171556Z 18009G16KT 10SM CLR 27/22 A2999 RMK AO2 SLP148 T02670217
Observed Flight Rules
Aug-17 @ 15:56 UTC (56 minutes ago) Visual Flight Rules
Wind Visibility Clouds
180° at 9 knots
 Gusting to 16 knots
10 miles
  • Clear skies
Temperatures Readings
Current 27°C / 81°F
Dewpoint 22°C / 72°F
Humidity 74%
Altimeter 29.99" Hg
Pressure 1014.8 hPa
Elevation 335
METAR KITH 171556Z 18009G16KT 10SM CLR 27/22 A2999 RMK AO2 SLP148 T02670217
Observed Flight Rules
Aug-17 @ 15:56 UTC
(56 minutes ago)
VFR
Wind Visibility
180° at 9 knots
 Gusting to 16 knots
10 miles
Clouds
  • Clear skies
Temperature Dewpoint
27°C / 81°F 22°C / 72°F
Humidity Altimeter Pressure
74% 29.99" Hg 1014.8 hPa